Du har inga inställningar för hoppväder.nu

Hoppväder.nu

Senast uppdaterat 02:29

UTC-tid

2020-07-07 kl. 00:29


Sol och måne

Solen går upp 4:14 och går ner 22:43 (beräknade cirkatider)
Nästa fullmåne blir om 27 dagar (2020-08-03)

METAR

ESMQ (Kalmar)
(9 minuter sedan)
ESMQ 070020Z AUTO 24011KT 9999 FEW025/// 13/10 Q1003=



ESMX (Växjö)
(9 minuter sedan)
ESMX 070020Z AUTO 22010KT 9999 FEW019/// OVC072/// 12/10 Q1004=



ESMK (Ronneby)
(9 minuter sedan)
ESMK 070020Z AUTO 28011KT 250V310 9999 BKN030/// OVC047/// 13/08 Q1008=



ESSV (Visby)
(9 minuter sedan)
ESSV 070020Z AUTO 26017KT 9999 FEW019/// SCT074/// OVC110/// 14/11 Q1000=






TAF

ESMQ (Kalmar)
ESMQ



ESMX (Växjö)
ESMX



ESMK (Ronneby)
ESMK



ESSV (Visby)
(419 minuter sedan)
ESSV 061730Z 0618/0622 22020G30KT CAVOK PROB40 0618/0622 SCT030CB=





Kodnycklar till TAF och METAR






LHP

(Borglanda är område se22a i Delområde 2)

Prognos är inte uppdaterad






Preliminär prognos